sensor_id;sensor_type;location;lat;lon;timestamp;P1;durP1;ratioP1;P2;durP2;ratioP2
73733;SDS011;62039;50.000;9.064;2022-10-31T00:01:11;3.40;;;2.67;;
73733;SDS011;62039;50.000;9.064;2022-10-31T00:03:40;3.50;;;2.53;;
73733;SDS011;62039;50.000;9.064;2022-10-31T00:06:06;5.17;;;3.00;;
73733;SDS011;62039;50.000;9.064;2022-10-31T00:08:34;5.33;;;2.90;;
73733;SDS011;62039;50.000;9.064;2022-10-31T00:11:01;4.33;;;3.10;;
73733;SDS011;62039;50.000;9.064;2022-10-31T00:13:27;3.83;;;2.90;;
73733;SDS011;62039;50.000;9.064;2022-10-31T00:15:54;4.33;;;3.00;;
73733;SDS011;62039;50.000;9.064;2022-10-31T00:18:20;5.93;;;2.80;;
73733;SDS011;62039;50.000;9.064;2022-10-31T00:20:47;3.23;;;2.70;;
73733;SDS011;62039;50.000;9.064;2022-10-31T00:23:13;3.97;;;2.80;;
73733;SDS011;62039;50.000;9.064;2022-10-31T00:25:41;2.97;;;2.57;;
73733;SDS011;62039;50.000;9.064;2022-10-31T00:28:08;4.30;;;2.80;;
73733;SDS011;62039;50.000;9.064;2022-10-31T00:30:37;3.80;;;2.47;;
73733;SDS011;62039;50.000;9.064;2022-10-31T00:33:03;5.13;;;2.50;;
73733;SDS011;62039;50.000;9.064;2022-10-31T00:35:30;2.53;;;2.30;;
73733;SDS011;62039;50.000;9.064;2022-10-31T00:37:56;2.33;;;2.13;;
73733;SDS011;62039;50.000;9.064;2022-10-31T00:40:23;3.17;;;2.50;;
73733;SDS011;62039;50.000;9.064;2022-10-31T00:42:51;3.27;;;2.30;;
73733;SDS011;62039;50.000;9.064;2022-10-31T00:45:18;3.87;;;2.20;;
73733;SDS011;62039;50.000;9.064;2022-10-31T00:47:45;3.07;;;2.23;;
73733;SDS011;62039;50.000;9.064;2022-10-31T00:50:11;5.03;;;2.70;;
73733;SDS011;62039;50.000;9.064;2022-10-31T00:52:38;3.00;;;2.30;;
73733;SDS011;62039;50.000;9.064;2022-10-31T00:55:04;4.00;;;2.83;;
73733;SDS011;62039;50.000;9.064;2022-10-31T00:57:31;5.10;;;2.50;;
73733;SDS011;62039;50.000;9.064;2022-10-31T00:59:59;3.40;;;2.37;;
73733;SDS011;62039;50.000;9.064;2022-10-31T01:02:25;4.20;;;2.57;;
73733;SDS011;62039;50.000;9.064;2022-10-31T01:04:52;3.60;;;2.83;;
73733;SDS011;62039;50.000;9.064;2022-10-31T01:07:19;4.43;;;2.57;;
73733;SDS011;62039;50.000;9.064;2022-10-31T01:09:45;3.80;;;2.50;;
73733;SDS011;62039;50.000;9.064;2022-10-31T01:12:12;3.37;;;2.97;;
73733;SDS011;62039;50.000;9.064;2022-10-31T01:14:41;5.07;;;2.97;;
73733;SDS011;62039;50.000;9.064;2022-10-31T01:17:10;4.73;;;2.67;;
73733;SDS011;62039;50.000;9.064;2022-10-31T01:19:36;4.00;;;2.63;;
73733;SDS011;62039;50.000;9.064;2022-10-31T01:22:03;3.57;;;2.70;;
73733;SDS011;62039;50.000;9.064;2022-10-31T01:24:30;3.50;;;2.70;;
73733;SDS011;62039;50.000;9.064;2022-10-31T01:26:56;5.83;;;3.20;;
73733;SDS011;62039;50.000;9.064;2022-10-31T01:29:23;2.90;;;2.50;;
73733;SDS011;62039;50.000;9.064;2022-10-31T01:31:49;3.80;;;2.63;;
73733;SDS011;62039;50.000;9.064;2022-10-31T01:34:17;4.50;;;2.77;;
73733;SDS011;62039;50.000;9.064;2022-10-31T01:36:44;3.63;;;2.53;;
73733;SDS011;62039;50.000;9.064;2022-10-31T01:39:12;4.10;;;2.30;;
73733;SDS011;62039;50.000;9.064;2022-10-31T01:41:41;4.77;;;2.53;;
73733;SDS011;62039;50.000;9.064;2022-10-31T01:47:13;3.17;;;2.50;;
73733;SDS011;62039;50.000;9.064;2022-10-31T01:49:46;3.63;;;2.33;;
73733;SDS011;62039;50.000;9.064;2022-10-31T01:52:16;3.10;;;2.70;;
73733;SDS011;62039;50.000;9.064;2022-10-31T01:54:47;2.70;;;2.40;;
73733;SDS011;62039;50.000;9.064;2022-10-31T01:57:17;2.93;;;2.30;;
73733;SDS011;62039;50.000;9.064;2022-10-31T01:59:47;2.80;;;2.10;;
73733;SDS011;62039;50.000;9.064;2022-10-31T02:02:15;3.63;;;2.47;;
73733;SDS011;62039;50.000;9.064;2022-10-31T02:04:46;2.73;;;2.30;;
73733;SDS011;62039;50.000;9.064;2022-10-31T02:07:14;3.83;;;2.47;;
73733;SDS011;62039;50.000;9.064;2022-10-31T02:09:44;5.40;;;2.50;;
73733;SDS011;62039;50.000;9.064;2022-10-31T02:12:12;5.53;;;2.97;;
73733;SDS011;62039;50.000;9.064;2022-10-31T02:14:39;3.60;;;2.37;;
73733;SDS011;62039;50.000;9.064;2022-10-31T02:17:06;3.50;;;2.33;;
73733;SDS011;62039;50.000;9.064;2022-10-31T02:19:34;3.00;;;2.10;;
73733;SDS011;62039;50.000;9.064;2022-10-31T02:22:12;4.03;;;2.17;;
73733;SDS011;62039;50.000;9.064;2022-10-31T02:24:45;2.77;;;1.80;;
73733;SDS011;62039;50.000;9.064;2022-10-31T02:27:21;3.97;;;2.33;;
73733;SDS011;62039;50.000;9.064;2022-10-31T02:30:05;4.20;;;2.30;;
73733;SDS011;62039;50.000;9.064;2022-10-31T02:32:46;3.27;;;2.27;;
73733;SDS011;62039;50.000;9.064;2022-10-31T02:35:23;3.33;;;2.30;;
73733;SDS011;62039;50.000;9.064;2022-10-31T02:37:57;4.93;;;2.90;;
73733;SDS011;62039;50.000;9.064;2022-10-31T02:40:39;4.90;;;2.70;;
73733;SDS011;62039;50.000;9.064;2022-10-31T02:43:13;3.33;;;2.60;;
73733;SDS011;62039;50.000;9.064;2022-10-31T02:45:48;4.00;;;2.60;;
73733;SDS011;62039;50.000;9.064;2022-10-31T02:48:22;5.00;;;2.70;;
73733;SDS011;62039;50.000;9.064;2022-10-31T02:50:54;2.60;;;2.10;;
73733;SDS011;62039;50.000;9.064;2022-10-31T02:53:23;3.10;;;2.50;;
73733;SDS011;62039;50.000;9.064;2022-10-31T02:55:58;2.67;;;2.40;;
73733;SDS011;62039;50.000;9.064;2022-10-31T02:58:29;4.00;;;2.67;;
73733;SDS011;62039;50.000;9.064;2022-10-31T03:01:06;5.50;;;3.03;;
73733;SDS011;62039;50.000;9.064;2022-10-31T03:03:48;4.23;;;2.17;;
73733;SDS011;62039;50.000;9.064;2022-10-31T03:06:24;2.73;;;2.30;;
73733;SDS011;62039;50.000;9.064;2022-10-31T03:08:55;3.33;;;2.40;;
73733;SDS011;62039;50.000;9.064;2022-10-31T03:11:31;3.70;;;2.60;;
73733;SDS011;62039;50.000;9.064;2022-10-31T03:14:10;4.30;;;2.63;;
73733;SDS011;62039;50.000;9.064;2022-10-31T03:16:40;4.83;;;2.80;;
73733;SDS011;62039;50.000;9.064;2022-10-31T03:19:13;5.87;;;3.20;;
73733;SDS011;62039;50.000;9.064;2022-10-31T03:21:43;5.07;;;3.10;;
73733;SDS011;62039;50.000;9.064;2022-10-31T03:24:12;5.63;;;3.10;;
73733;SDS011;62039;50.000;9.064;2022-10-31T03:26:41;6.30;;;2.60;;
73733;SDS011;62039;50.000;9.064;2022-10-31T03:29:11;4.87;;;2.83;;
73733;SDS011;62039;50.000;9.064;2022-10-31T03:31:42;5.50;;;2.97;;
73733;SDS011;62039;50.000;9.064;2022-10-31T03:34:13;3.30;;;2.37;;
73733;SDS011;62039;50.000;9.064;2022-10-31T03:36:43;8.80;;;2.73;;
73733;SDS011;62039;50.000;9.064;2022-10-31T03:39:12;3.27;;;2.20;;
73733;SDS011;62039;50.000;9.064;2022-10-31T03:41:43;2.87;;;1.97;;
73733;SDS011;62039;50.000;9.064;2022-10-31T03:44:15;2.63;;;2.10;;
73733;SDS011;62039;50.000;9.064;2022-10-31T03:46:43;3.20;;;2.57;;
73733;SDS011;62039;50.000;9.064;2022-10-31T03:49:10;3.17;;;2.27;;
73733;SDS011;62039;50.000;9.064;2022-10-31T03:51:42;4.07;;;2.50;;
73733;SDS011;62039;50.000;9.064;2022-10-31T03:54:13;4.37;;;2.67;;
73733;SDS011;62039;50.000;9.064;2022-10-31T03:56:47;3.00;;;2.30;;
73733;SDS011;62039;50.000;9.064;2022-10-31T03:59:18;2.93;;;2.40;;
73733;SDS011;62039;50.000;9.064;2022-10-31T04:01:48;2.40;;;1.77;;
73733;SDS011;62039;50.000;9.064;2022-10-31T04:04:18;3.57;;;2.10;;
73733;SDS011;62039;50.000;9.064;2022-10-31T04:06:47;3.07;;;2.10;;
73733;SDS011;62039;50.000;9.064;2022-10-31T04:09:15;6.60;;;3.30;;
73733;SDS011;62039;50.000;9.064;2022-10-31T04:11:45;3.03;;;2.27;;
73733;SDS011;62039;50.000;9.064;2022-10-31T04:14:14;2.43;;;2.23;;
73733;SDS011;62039;50.000;9.064;2022-10-31T04:16:41;3.47;;;2.40;;
73733;SDS011;62039;50.000;9.064;2022-10-31T04:19:09;3.87;;;2.03;;
73733;SDS011;62039;50.000;9.064;2022-10-31T04:21:36;3.93;;;2.03;;
73733;SDS011;62039;50.000;9.064;2022-10-31T04:24:05;4.47;;;2.30;;
73733;SDS011;62039;50.000;9.064;2022-10-31T04:26:32;2.63;;;1.80;;
73733;SDS011;62039;50.000;9.064;2022-10-31T04:28:58;2.80;;;2.20;;
73733;SDS011;62039;50.000;9.064;2022-10-31T04:31:25;4.87;;;2.10;;
73733;SDS011;62039;50.000;9.064;2022-10-31T04:33:51;2.73;;;1.87;;
73733;SDS011;62039;50.000;9.064;2022-10-31T04:36:18;2.33;;;1.87;;
73733;SDS011;62039;50.000;9.064;2022-10-31T04:38:44;5.20;;;2.60;;
73733;SDS011;62039;50.000;9.064;2022-10-31T04:41:12;2.97;;;1.97;;
73733;SDS011;62039;50.000;9.064;2022-10-31T04:43:39;3.00;;;2.47;;
73733;SDS011;62039;50.000;9.064;2022-10-31T04:46:05;3.40;;;2.33;;
73733;SDS011;62039;50.000;9.064;2022-10-31T04:48:32;2.53;;;2.33;;
73733;SDS011;62039;50.000;9.064;2022-10-31T04:50:58;3.27;;;2.47;;
73733;SDS011;62039;50.000;9.064;2022-10-31T04:53:25;2.43;;;2.10;;
73733;SDS011;62039;50.000;9.064;2022-10-31T04:55:52;3.63;;;2.43;;
73733;SDS011;62039;50.000;9.064;2022-10-31T04:58:20;4.80;;;2.20;;
73733;SDS011;62039;50.000;9.064;2022-10-31T05:00:46;4.03;;;2.37;;
73733;SDS011;62039;50.000;9.064;2022-10-31T05:03:13;4.07;;;2.40;;
73733;SDS011;62039;50.000;9.064;2022-10-31T05:05:39;4.20;;;2.53;;
73733;SDS011;62039;50.000;9.064;2022-10-31T05:08:07;2.67;;;2.07;;
73733;SDS011;62039;50.000;9.064;2022-10-31T05:10:34;2.77;;;2.00;;
73733;SDS011;62039;50.000;9.064;2022-10-31T05:13:01;4.10;;;2.43;;
73733;SDS011;62039;50.000;9.064;2022-10-31T05:15:31;3.23;;;2.20;;
73733;SDS011;62039;50.000;9.064;2022-10-31T05:17:58;4.80;;;2.70;;
73733;SDS011;62039;50.000;9.064;2022-10-31T05:20:26;4.70;;;2.47;;
73733;SDS011;62039;50.000;9.064;2022-10-31T05:22:54;3.13;;;2.30;;
73733;SDS011;62039;50.000;9.064;2022-10-31T05:25:22;2.63;;;2.03;;
73733;SDS011;62039;50.000;9.064;2022-10-31T05:27:51;4.20;;;2.50;;
73733;SDS011;62039;50.000;9.064;2022-10-31T05:30:18;6.00;;;2.37;;
73733;SDS011;62039;50.000;9.064;2022-10-31T05:32:48;5.13;;;2.43;;
73733;SDS011;62039;50.000;9.064;2022-10-31T05:35:17;3.73;;;2.10;;
73733;SDS011;62039;50.000;9.064;2022-10-31T05:37:44;4.13;;;2.10;;
73733;SDS011;62039;50.000;9.064;2022-10-31T05:40:11;4.03;;;2.23;;
73733;SDS011;62039;50.000;9.064;2022-10-31T05:42:39;3.20;;;2.10;;
73733;SDS011;62039;50.000;9.064;2022-10-31T05:45:07;4.27;;;2.07;;
73733;SDS011;62039;50.000;9.064;2022-10-31T05:47:34;4.10;;;2.50;;
73733;SDS011;62039;50.000;9.064;2022-10-31T05:50:02;3.77;;;2.53;;
73733;SDS011;62039;50.000;9.064;2022-10-31T05:52:29;4.33;;;3.37;;
73733;SDS011;62039;50.000;9.064;2022-10-31T05:54:56;3.60;;;3.30;;
73733;SDS011;62039;50.000;9.064;2022-10-31T05:57:22;11.77;;;2.90;;
73733;SDS011;62039;50.000;9.064;2022-10-31T05:59:49;3.47;;;2.40;;
73733;SDS011;62039;50.000;9.064;2022-10-31T06:02:20;3.23;;;2.70;;
73733;SDS011;62039;50.000;9.064;2022-10-31T06:04:47;2.97;;;2.63;;
73733;SDS011;62039;50.000;9.064;2022-10-31T06:07:15;4.73;;;2.57;;
73733;SDS011;62039;50.000;9.064;2022-10-31T06:09:41;2.93;;;2.63;;
73733;SDS011;62039;50.000;9.064;2022-10-31T06:12:08;3.17;;;2.27;;
73733;SDS011;62039;50.000;9.064;2022-10-31T06:14:34;4.50;;;2.53;;
73733;SDS011;62039;50.000;9.064;2022-10-31T06:17:01;2.77;;;2.53;;
73733;SDS011;62039;50.000;9.064;2022-10-31T06:19:27;3.23;;;2.20;;
73733;SDS011;62039;50.000;9.064;2022-10-31T06:21:54;4.33;;;2.33;;
73733;SDS011;62039;50.000;9.064;2022-10-31T06:24:22;2.87;;;2.20;;
73733;SDS011;62039;50.000;9.064;2022-10-31T06:26:48;3.63;;;2.20;;
73733;SDS011;62039;50.000;9.064;2022-10-31T06:29:15;3.70;;;2.20;;
73733;SDS011;62039;50.000;9.064;2022-10-31T06:31:41;3.97;;;2.33;;
73733;SDS011;62039;50.000;9.064;2022-10-31T06:34:08;2.27;;;1.97;;
73733;SDS011;62039;50.000;9.064;2022-10-31T06:36:34;2.53;;;1.90;;
73733;SDS011;62039;50.000;9.064;2022-10-31T06:39:01;3.40;;;2.23;;
73733;SDS011;62039;50.000;9.064;2022-10-31T06:41:29;2.97;;;2.00;;
73733;SDS011;62039;50.000;9.064;2022-10-31T06:43:55;2.87;;;2.30;;
73733;SDS011;62039;50.000;9.064;2022-10-31T06:46:22;3.33;;;2.47;;
73733;SDS011;62039;50.000;9.064;2022-10-31T06:48:48;2.90;;;2.47;;
73733;SDS011;62039;50.000;9.064;2022-10-31T06:51:15;4.23;;;2.63;;
73733;SDS011;62039;50.000;9.064;2022-10-31T06:53:41;4.90;;;2.90;;
73733;SDS011;62039;50.000;9.064;2022-10-31T06:56:08;6.57;;;2.70;;
73733;SDS011;62039;50.000;9.064;2022-10-31T06:58:36;3.57;;;2.50;;
73733;SDS011;62039;50.000;9.064;2022-10-31T07:01:02;3.83;;;2.83;;
73733;SDS011;62039;50.000;9.064;2022-10-31T07:03:29;2.60;;;2.03;;
73733;SDS011;62039;50.000;9.064;2022-10-31T07:05:56;3.40;;;2.33;;
73733;SDS011;62039;50.000;9.064;2022-10-31T07:08:23;4.90;;;2.40;;
73733;SDS011;62039;50.000;9.064;2022-10-31T07:10:51;5.20;;;2.13;;
73733;SDS011;62039;50.000;9.064;2022-10-31T07:13:18;2.57;;;1.97;;
73733;SDS011;62039;50.000;9.064;2022-10-31T07:15:46;3.13;;;2.10;;
73733;SDS011;62039;50.000;9.064;2022-10-31T07:18:13;2.93;;;2.30;;
73733;SDS011;62039;50.000;9.064;2022-10-31T07:20:39;4.03;;;2.33;;
73733;SDS011;62039;50.000;9.064;2022-10-31T07:23:06;4.97;;;2.60;;
73733;SDS011;62039;50.000;9.064;2022-10-31T07:25:33;4.07;;;2.50;;
73733;SDS011;62039;50.000;9.064;2022-10-31T07:28:00;5.03;;;3.67;;
73733;SDS011;62039;50.000;9.064;2022-10-31T07:30:27;4.03;;;3.00;;
73733;SDS011;62039;50.000;9.064;2022-10-31T07:32:55;5.03;;;3.10;;
73733;SDS011;62039;50.000;9.064;2022-10-31T07:35:23;3.20;;;2.87;;
73733;SDS011;62039;50.000;9.064;2022-10-31T07:37:51;3.60;;;3.10;;
73733;SDS011;62039;50.000;9.064;2022-10-31T07:40:17;3.60;;;3.07;;
73733;SDS011;62039;50.000;9.064;2022-10-31T07:42:46;4.50;;;2.77;;
73733;SDS011;62039;50.000;9.064;2022-10-31T07:45:14;4.60;;;3.17;;
73733;SDS011;62039;50.000;9.064;2022-10-31T07:47:43;4.67;;;3.17;;
73733;SDS011;62039;50.000;9.064;2022-10-31T07:50:12;3.87;;;2.77;;
73733;SDS011;62039;50.000;9.064;2022-10-31T07:52:40;4.00;;;2.67;;
73733;SDS011;62039;50.000;9.064;2022-10-31T07:55:07;4.87;;;3.90;;
73733;SDS011;62039;50.000;9.064;2022-10-31T07:57:33;6.07;;;4.17;;
73733;SDS011;62039;50.000;9.064;2022-10-31T08:00:00;7.63;;;3.47;;
73733;SDS011;62039;50.000;9.064;2022-10-31T08:02:27;4.50;;;3.10;;
73733;SDS011;62039;50.000;9.064;2022-10-31T08:04:53;6.97;;;3.53;;
73733;SDS011;62039;50.000;9.064;2022-10-31T08:07:26;4.60;;;2.87;;
73733;SDS011;62039;50.000;9.064;2022-10-31T08:09:54;6.33;;;3.13;;
73733;SDS011;62039;50.000;9.064;2022-10-31T08:12:20;4.30;;;2.80;;
73733;SDS011;62039;50.000;9.064;2022-10-31T08:14:47;5.37;;;2.33;;
73733;SDS011;62039;50.000;9.064;2022-10-31T08:17:14;6.13;;;3.40;;
73733;SDS011;62039;50.000;9.064;2022-10-31T08:19:40;3.87;;;2.43;;
73733;SDS011;62039;50.000;9.064;2022-10-31T08:22:07;3.57;;;2.67;;
73733;SDS011;62039;50.000;9.064;2022-10-31T08:24:34;5.03;;;3.60;;
73733;SDS011;62039;50.000;9.064;2022-10-31T08:27:01;5.30;;;3.20;;
73733;SDS011;62039;50.000;9.064;2022-10-31T08:29:28;5.17;;;3.70;;
73733;SDS011;62039;50.000;9.064;2022-10-31T08:31:54;4.07;;;3.07;;
73733;SDS011;62039;50.000;9.064;2022-10-31T08:34:21;4.67;;;2.60;;
73733;SDS011;62039;50.000;9.064;2022-10-31T08:36:47;5.53;;;3.50;;
73733;SDS011;62039;50.000;9.064;2022-10-31T08:39:14;6.70;;;3.10;;
73733;SDS011;62039;50.000;9.064;2022-10-31T08:41:41;5.20;;;3.40;;
73733;SDS011;62039;50.000;9.064;2022-10-31T08:44:08;5.00;;;2.90;;
73733;SDS011;62039;50.000;9.064;2022-10-31T08:46:34;6.23;;;3.03;;
73733;SDS011;62039;50.000;9.064;2022-10-31T08:49:01;4.23;;;3.37;;
73733;SDS011;62039;50.000;9.064;2022-10-31T08:51:27;5.03;;;3.00;;
73733;SDS011;62039;50.000;9.064;2022-10-31T08:53:54;4.70;;;3.17;;
73733;SDS011;62039;50.000;9.064;2022-10-31T08:56:20;6.73;;;2.63;;
73733;SDS011;62039;50.000;9.064;2022-10-31T08:58:49;3.63;;;2.90;;
73733;SDS011;62039;50.000;9.064;2022-10-31T09:01:15;8.17;;;3.13;;
73733;SDS011;62039;50.000;9.064;2022-10-31T09:03:42;7.20;;;3.47;;
73733;SDS011;62039;50.000;9.064;2022-10-31T09:06:09;6.63;;;3.60;;
73733;SDS011;62039;50.000;9.064;2022-10-31T09:08:36;6.47;;;3.03;;
73733;SDS011;62039;50.000;9.064;2022-10-31T09:11:03;4.97;;;2.80;;
73733;SDS011;62039;50.000;9.064;2022-10-31T09:13:30;3.70;;;2.80;;
73733;SDS011;62039;50.000;9.064;2022-10-31T09:15:58;6.27;;;2.70;;
73733;SDS011;62039;50.000;9.064;2022-10-31T09:18:24;4.10;;;2.43;;
73733;SDS011;62039;50.000;9.064;2022-10-31T09:20:51;7.13;;;3.20;;
73733;SDS011;62039;50.000;9.064;2022-10-31T09:23:18;4.10;;;2.67;;
73733;SDS011;62039;50.000;9.064;2022-10-31T09:25:47;4.80;;;3.23;;
73733;SDS011;62039;50.000;9.064;2022-10-31T09:28:16;4.80;;;3.20;;
73733;SDS011;62039;50.000;9.064;2022-10-31T09:30:45;4.27;;;3.50;;
73733;SDS011;62039;50.000;9.064;2022-10-31T09:33:14;6.17;;;3.07;;
73733;SDS011;62039;50.000;9.064;2022-10-31T09:35:41;3.90;;;3.10;;
73733;SDS011;62039;50.000;9.064;2022-10-31T09:38:08;4.93;;;3.13;;
73733;SDS011;62039;50.000;9.064;2022-10-31T09:40:37;4.70;;;3.00;;
73733;SDS011;62039;50.000;9.064;2022-10-31T09:43:08;3.87;;;2.47;;
73733;SDS011;62039;50.000;9.064;2022-10-31T09:45:43;5.17;;;2.90;;
73733;SDS011;62039;50.000;9.064;2022-10-31T09:48:25;5.83;;;3.20;;
73733;SDS011;62039;50.000;9.064;2022-10-31T09:50:59;3.33;;;2.90;;
73733;SDS011;62039;50.000;9.064;2022-10-31T09:53:30;6.83;;;3.03;;
73733;SDS011;62039;50.000;9.064;2022-10-31T09:56:00;3.73;;;3.23;;
73733;SDS011;62039;50.000;9.064;2022-10-31T09:58:28;12.60;;;3.67;;
73733;SDS011;62039;50.000;9.064;2022-10-31T10:01:00;4.47;;;3.57;;
73733;SDS011;62039;50.000;9.064;2022-10-31T10:03:31;3.93;;;3.40;;
73733;SDS011;62039;50.000;9.064;2022-10-31T10:06:03;4.50;;;3.20;;
73733;SDS011;62039;50.000;9.064;2022-10-31T10:08:35;6.60;;;3.60;;
73733;SDS011;62039;50.000;9.064;2022-10-31T10:11:05;5.30;;;3.67;;
73733;SDS011;62039;50.000;9.064;2022-10-31T10:13:36;4.50;;;3.07;;
73733;SDS011;62039;50.000;9.064;2022-10-31T10:16:14;4.23;;;3.63;;
73733;SDS011;62039;50.000;9.064;2022-10-31T10:18:56;5.23;;;3.50;;
73733;SDS011;62039;50.000;9.064;2022-10-31T10:21:33;5.27;;;3.00;;
73733;SDS011;62039;50.000;9.064;2022-10-31T10:24:10;5.13;;;3.33;;
73733;SDS011;62039;50.000;9.064;2022-10-31T10:26:48;6.37;;;3.90;;
73733;SDS011;62039;50.000;9.064;2022-10-31T10:29:27;6.03;;;2.90;;
73733;SDS011;62039;50.000;9.064;2022-10-31T10:31:58;4.73;;;3.10;;
73733;SDS011;62039;50.000;9.064;2022-10-31T10:34:33;6.90;;;3.13;;
73733;SDS011;62039;50.000;9.064;2022-10-31T10:37:04;5.37;;;3.80;;
73733;SDS011;62039;50.000;9.064;2022-10-31T10:39:35;4.83;;;3.50;;
73733;SDS011;62039;50.000;9.064;2022-10-31T10:42:07;6.60;;;3.00;;
73733;SDS011;62039;50.000;9.064;2022-10-31T10:44:37;4.27;;;3.20;;
73733;SDS011;62039;50.000;9.064;2022-10-31T10:47:06;5.83;;;3.00;;
73733;SDS011;62039;50.000;9.064;2022-10-31T10:49:35;5.47;;;3.43;;
73733;SDS011;62039;50.000;9.064;2022-10-31T10:52:08;5.33;;;3.57;;
73733;SDS011;62039;50.000;9.064;2022-10-31T10:55:03;5.67;;;3.70;;
73733;SDS011;62039;50.000;9.064;2022-10-31T10:57:38;4.83;;;3.67;;
73733;SDS011;62039;50.000;9.064;2022-10-31T11:00:17;4.23;;;3.10;;
73733;SDS011;62039;50.000;9.064;2022-10-31T11:02:45;5.30;;;3.13;;
73733;SDS011;62039;50.000;9.064;2022-10-31T11:05:18;5.20;;;3.50;;
73733;SDS011;62039;50.000;9.064;2022-10-31T11:07:49;4.03;;;2.77;;
73733;SDS011;62039;50.000;9.064;2022-10-31T11:10:15;3.97;;;2.97;;
73733;SDS011;62039;50.000;9.064;2022-10-31T11:12:43;4.80;;;3.17;;
73733;SDS011;62039;50.000;9.064;2022-10-31T11:15:18;4.87;;;3.00;;
73733;SDS011;62039;50.000;9.064;2022-10-31T11:17:48;4.63;;;3.03;;
73733;SDS011;62039;50.000;9.064;2022-10-31T11:23:17;4.07;;;3.00;;
73733;SDS011;62039;50.000;9.064;2022-10-31T11:25:48;4.13;;;2.97;;
73733;SDS011;62039;50.000;9.064;2022-10-31T11:28:17;3.93;;;2.97;;
73733;SDS011;62039;50.000;9.064;2022-10-31T11:30:45;5.50;;;3.47;;
73733;SDS011;62039;50.000;9.064;2022-10-31T11:33:17;4.10;;;2.97;;
73733;SDS011;62039;50.000;9.064;2022-10-31T11:35:49;6.53;;;3.40;;
73733;SDS011;62039;50.000;9.064;2022-10-31T11:38:23;6.27;;;3.70;;
73733;SDS011;62039;50.000;9.064;2022-10-31T11:40:53;4.57;;;3.10;;
73733;SDS011;62039;50.000;9.064;2022-10-31T11:43:21;4.17;;;2.93;;
73733;SDS011;62039;50.000;9.064;2022-10-31T11:45:49;4.87;;;3.37;;
73733;SDS011;62039;50.000;9.064;2022-10-31T11:48:16;3.43;;;2.90;;
73733;SDS011;62039;50.000;9.064;2022-10-31T11:50:49;4.00;;;2.80;;
73733;SDS011;62039;50.000;9.064;2022-10-31T11:53:18;4.07;;;3.30;;
73733;SDS011;62039;50.000;9.064;2022-10-31T11:55:46;4.93;;;3.27;;
73733;SDS011;62039;50.000;9.064;2022-10-31T11:58:25;4.33;;;3.03;;
73733;SDS011;62039;50.000;9.064;2022-10-31T12:00:53;4.23;;;2.80;;
73733;SDS011;62039;50.000;9.064;2022-10-31T12:03:32;4.57;;;2.70;;
73733;SDS011;62039;50.000;9.064;2022-10-31T12:06:07;4.20;;;2.97;;
73733;SDS011;62039;50.000;9.064;2022-10-31T12:08:38;4.40;;;2.90;;
73733;SDS011;62039;50.000;9.064;2022-10-31T12:11:09;4.83;;;2.80;;
73733;SDS011;62039;50.000;9.064;2022-10-31T12:13:42;4.00;;;3.30;;
73733;SDS011;62039;50.000;9.064;2022-10-31T12:16:30;5.87;;;3.03;;
73733;SDS011;62039;50.000;9.064;2022-10-31T12:19:00;4.53;;;2.57;;
73733;SDS011;62039;50.000;9.064;2022-10-31T12:21:37;3.67;;;3.00;;
73733;SDS011;62039;50.000;9.064;2022-10-31T12:24:16;4.50;;;3.30;;
73733;SDS011;62039;50.000;9.064;2022-10-31T12:26:51;3.97;;;2.93;;
73733;SDS011;62039;50.000;9.064;2022-10-31T12:29:29;3.80;;;2.73;;
73733;SDS011;62039;50.000;9.064;2022-10-31T12:32:15;6.30;;;3.27;;
73733;SDS011;62039;50.000;9.064;2022-10-31T12:34:55;7.37;;;2.90;;
73733;SDS011;62039;50.000;9.064;2022-10-31T12:37:39;3.73;;;2.97;;
73733;SDS011;62039;50.000;9.064;2022-10-31T12:40:33;4.07;;;2.80;;
73733;SDS011;62039;50.000;9.064;2022-10-31T12:43:26;4.90;;;3.10;;
73733;SDS011;62039;50.000;9.064;2022-10-31T12:46:02;4.73;;;2.97;;
73733;SDS011;62039;50.000;9.064;2022-10-31T12:48:35;5.03;;;2.73;;
73733;SDS011;62039;50.000;9.064;2022-10-31T12:51:15;3.97;;;2.53;;
73733;SDS011;62039;50.000;9.064;2022-10-31T12:53:51;5.77;;;3.30;;
73733;SDS011;62039;50.000;9.064;2022-10-31T12:56:34;4.43;;;2.87;;
73733;SDS011;62039;50.000;9.064;2022-10-31T12:59:07;5.10;;;2.77;;
73733;SDS011;62039;50.000;9.064;2022-10-31T13:01:41;4.57;;;2.40;;
73733;SDS011;62039;50.000;9.064;2022-10-31T13:04:14;5.50;;;3.17;;
73733;SDS011;62039;50.000;9.064;2022-10-31T13:06:46;4.77;;;3.07;;
73733;SDS011;62039;50.000;9.064;2022-10-31T13:09:16;3.33;;;2.27;;
73733;SDS011;62039;50.000;9.064;2022-10-31T13:11:46;4.47;;;2.80;;
73733;SDS011;62039;50.000;9.064;2022-10-31T13:14:19;3.73;;;2.67;;
73733;SDS011;62039;50.000;9.064;2022-10-31T13:16:50;4.80;;;2.70;;
73733;SDS011;62039;50.000;9.064;2022-10-31T13:19:18;4.83;;;2.83;;
73733;SDS011;62039;50.000;9.064;2022-10-31T13:21:51;6.00;;;3.10;;
73733;SDS011;62039;50.000;9.064;2022-10-31T13:24:25;3.50;;;3.20;;
73733;SDS011;62039;50.000;9.064;2022-10-31T13:26:57;3.97;;;2.60;;
73733;SDS011;62039;50.000;9.064;2022-10-31T13:29:26;7.67;;;3.17;;
73733;SDS011;62039;50.000;9.064;2022-10-31T13:31:58;3.03;;;2.20;;
73733;SDS011;62039;50.000;9.064;2022-10-31T13:34:27;4.13;;;2.47;;
73733;SDS011;62039;50.000;9.064;2022-10-31T13:37:01;3.67;;;2.70;;
73733;SDS011;62039;50.000;9.064;2022-10-31T13:39:38;4.60;;;2.77;;
73733;SDS011;62039;50.000;9.064;2022-10-31T13:42:14;3.10;;;2.30;;
73733;SDS011;62039;50.000;9.064;2022-10-31T13:44:45;7.40;;;3.20;;
73733;SDS011;62039;50.000;9.064;2022-10-31T13:47:22;3.53;;;2.53;;
73733;SDS011;62039;50.000;9.064;2022-10-31T13:49:51;2.93;;;2.60;;
73733;SDS011;62039;50.000;9.064;2022-10-31T13:52:28;3.27;;;2.33;;
73733;SDS011;62039;50.000;9.064;2022-10-31T13:54:57;4.70;;;2.67;;
73733;SDS011;62039;50.000;9.064;2022-10-31T13:57:27;5.33;;;2.60;;
73733;SDS011;62039;50.000;9.064;2022-10-31T14:00:00;3.27;;;2.63;;
73733;SDS011;62039;50.000;9.064;2022-10-31T14:02:30;4.50;;;2.33;;
73733;SDS011;62039;50.000;9.064;2022-10-31T14:05:00;6.47;;;2.67;;
73733;SDS011;62039;50.000;9.064;2022-10-31T14:07:29;4.77;;;2.67;;
73733;SDS011;62039;50.000;9.064;2022-10-31T14:09:59;3.87;;;2.27;;
73733;SDS011;62039;50.000;9.064;2022-10-31T14:12:29;5.37;;;2.70;;
73733;SDS011;62039;50.000;9.064;2022-10-31T14:15:00;4.23;;;2.20;;
73733;SDS011;62039;50.000;9.064;2022-10-31T14:17:38;3.80;;;2.67;;
73733;SDS011;62039;50.000;9.064;2022-10-31T14:20:25;4.33;;;2.20;;
73733;SDS011;62039;50.000;9.064;2022-10-31T14:22:58;3.30;;;2.23;;
73733;SDS011;62039;50.000;9.064;2022-10-31T14:25:32;3.70;;;2.13;;
73733;SDS011;62039;50.000;9.064;2022-10-31T14:28:00;4.73;;;2.30;;
73733;SDS011;62039;50.000;9.064;2022-10-31T14:30:30;4.63;;;2.50;;
73733;SDS011;62039;50.000;9.064;2022-10-31T14:32:58;7.67;;;2.70;;
73733;SDS011;62039;50.000;9.064;2022-10-31T14:35:28;6.37;;;2.97;;
73733;SDS011;62039;50.000;9.064;2022-10-31T14:38:18;3.40;;;2.33;;
73733;SDS011;62039;50.000;9.064;2022-10-31T14:41:07;3.80;;;2.60;;
73733;SDS011;62039;50.000;9.064;2022-10-31T14:44:00;2.60;;;2.23;;
73733;SDS011;62039;50.000;9.064;2022-10-31T14:46:42;4.07;;;2.70;;
73733;SDS011;62039;50.000;9.064;2022-10-31T14:49:19;4.07;;;2.70;;
73733;SDS011;62039;50.000;9.064;2022-10-31T14:51:55;2.97;;;2.60;;
73733;SDS011;62039;50.000;9.064;2022-10-31T14:54:23;4.37;;;3.30;;
73733;SDS011;62039;50.000;9.064;2022-10-31T14:56:55;6.77;;;3.13;;
73733;SDS011;62039;50.000;9.064;2022-10-31T14:59:27;5.67;;;3.23;;
73733;SDS011;62039;50.000;9.064;2022-10-31T15:01:57;3.67;;;2.87;;
73733;SDS011;62039;50.000;9.064;2022-10-31T15:04:26;5.63;;;2.70;;
73733;SDS011;62039;50.000;9.064;2022-10-31T15:06:57;5.33;;;3.10;;
73733;SDS011;62039;50.000;9.064;2022-10-31T15:09:29;3.97;;;2.87;;
73733;SDS011;62039;50.000;9.064;2022-10-31T15:11:59;4.43;;;2.40;;